sensor_id;sensor_type;location;lat;lon;timestamp;P1;durP1;ratioP1;P2;durP2;ratioP2
29320;SDS011;16323;51.130;6.612;2023-06-14T00:01:57;8.02;;;3.50;;
29320;SDS011;16323;51.130;6.612;2023-06-14T00:04:23;8.55;;;3.63;;
29320;SDS011;16323;51.130;6.612;2023-06-14T00:06:50;10.20;;;3.78;;
29320;SDS011;16323;51.130;6.612;2023-06-14T00:09:17;5.60;;;3.60;;
29320;SDS011;16323;51.130;6.612;2023-06-14T00:11:44;12.73;;;3.80;;
29320;SDS011;16323;51.130;6.612;2023-06-14T00:14:12;6.97;;;3.47;;
29320;SDS011;16323;51.130;6.612;2023-06-14T00:16:39;5.55;;;3.80;;
29320;SDS011;16323;51.130;6.612;2023-06-14T00:19:07;5.18;;;3.78;;
29320;SDS011;16323;51.130;6.612;2023-06-14T00:21:35;8.38;;;3.80;;
29320;SDS011;16323;51.130;6.612;2023-06-14T00:24:03;6.97;;;3.92;;
29320;SDS011;16323;51.130;6.612;2023-06-14T00:26:30;10.90;;;4.22;;
29320;SDS011;16323;51.130;6.612;2023-06-14T00:28:57;8.38;;;3.83;;
29320;SDS011;16323;51.130;6.612;2023-06-14T00:31:25;6.32;;;4.00;;
29320;SDS011;16323;51.130;6.612;2023-06-14T00:33:52;5.22;;;3.65;;
29320;SDS011;16323;51.130;6.612;2023-06-14T00:36:18;9.50;;;3.92;;
29320;SDS011;16323;51.130;6.612;2023-06-14T00:38:45;7.78;;;3.78;;
29320;SDS011;16323;51.130;6.612;2023-06-14T00:41:12;7.93;;;3.90;;
29320;SDS011;16323;51.130;6.612;2023-06-14T00:43:39;6.07;;;3.83;;
29320;SDS011;16323;51.130;6.612;2023-06-14T00:46:06;6.45;;;4.10;;
29320;SDS011;16323;51.130;6.612;2023-06-14T00:48:34;9.32;;;4.32;;
29320;SDS011;16323;51.130;6.612;2023-06-14T00:51:02;5.90;;;3.50;;
29320;SDS011;16323;51.130;6.612;2023-06-14T00:53:29;5.75;;;3.47;;
29320;SDS011;16323;51.130;6.612;2023-06-14T00:55:58;7.72;;;3.72;;
29320;SDS011;16323;51.130;6.612;2023-06-14T00:58:26;7.93;;;3.53;;
29320;SDS011;16323;51.130;6.612;2023-06-14T01:00:53;11.00;;;4.28;;
29320;SDS011;16323;51.130;6.612;2023-06-14T01:03:21;8.02;;;4.05;;
29320;SDS011;16323;51.130;6.612;2023-06-14T01:05:50;7.65;;;3.47;;
29320;SDS011;16323;51.130;6.612;2023-06-14T01:08:24;5.68;;;3.58;;
29320;SDS011;16323;51.130;6.612;2023-06-14T01:11:00;9.98;;;3.92;;
29320;SDS011;16323;51.130;6.612;2023-06-14T01:13:32;11.82;;;4.50;;
29320;SDS011;16323;51.130;6.612;2023-06-14T01:16:00;5.38;;;3.88;;
29320;SDS011;16323;51.130;6.612;2023-06-14T01:18:28;6.40;;;3.75;;
29320;SDS011;16323;51.130;6.612;2023-06-14T01:20:57;7.50;;;3.75;;
29320;SDS011;16323;51.130;6.612;2023-06-14T01:23:25;6.68;;;3.78;;
29320;SDS011;16323;51.130;6.612;2023-06-14T01:25:58;6.47;;;3.72;;
29320;SDS011;16323;51.130;6.612;2023-06-14T01:28:27;10.80;;;4.80;;
29320;SDS011;16323;51.130;6.612;2023-06-14T01:30:59;6.43;;;4.07;;
29320;SDS011;16323;51.130;6.612;2023-06-14T01:33:29;7.38;;;3.78;;
29320;SDS011;16323;51.130;6.612;2023-06-14T01:35:58;9.80;;;4.05;;
29320;SDS011;16323;51.130;6.612;2023-06-14T01:38:28;10.70;;;3.80;;
29320;SDS011;16323;51.130;6.612;2023-06-14T01:40:56;7.18;;;3.97;;
29320;SDS011;16323;51.130;6.612;2023-06-14T01:43:26;8.70;;;4.10;;
29320;SDS011;16323;51.130;6.612;2023-06-14T01:45:56;7.30;;;4.15;;
29320;SDS011;16323;51.130;6.612;2023-06-14T01:48:25;7.85;;;4.15;;
29320;SDS011;16323;51.130;6.612;2023-06-14T01:50:52;9.70;;;4.30;;
29320;SDS011;16323;51.130;6.612;2023-06-14T01:53:19;8.95;;;3.70;;
29320;SDS011;16323;51.130;6.612;2023-06-14T01:55:48;5.80;;;4.20;;
29320;SDS011;16323;51.130;6.612;2023-06-14T01:58:14;8.23;;;4.00;;
29320;SDS011;16323;51.130;6.612;2023-06-14T02:00:42;9.23;;;4.75;;
29320;SDS011;16323;51.130;6.612;2023-06-14T02:03:10;8.60;;;4.10;;
29320;SDS011;16323;51.130;6.612;2023-06-14T02:05:38;7.50;;;4.30;;
29320;SDS011;16323;51.130;6.612;2023-06-14T02:08:04;7.38;;;4.18;;
29320;SDS011;16323;51.130;6.612;2023-06-14T02:10:32;8.60;;;4.28;;
29320;SDS011;16323;51.130;6.612;2023-06-14T02:13:00;7.78;;;3.92;;
29320;SDS011;16323;51.130;6.612;2023-06-14T02:15:27;9.38;;;3.92;;
29320;SDS011;16323;51.130;6.612;2023-06-14T02:17:58;8.65;;;4.40;;
29320;SDS011;16323;51.130;6.612;2023-06-14T02:20:26;6.97;;;3.95;;
29320;SDS011;16323;51.130;6.612;2023-06-14T02:22:53;12.30;;;4.13;;
29320;SDS011;16323;51.130;6.612;2023-06-14T02:25:20;11.73;;;4.30;;
29320;SDS011;16323;51.130;6.612;2023-06-14T02:27:47;8.10;;;4.43;;
29320;SDS011;16323;51.130;6.612;2023-06-14T02:30:15;9.55;;;3.95;;
29320;SDS011;16323;51.130;6.612;2023-06-14T02:32:42;8.82;;;3.85;;
29320;SDS011;16323;51.130;6.612;2023-06-14T02:35:09;7.28;;;4.50;;
29320;SDS011;16323;51.130;6.612;2023-06-14T02:37:36;8.85;;;4.50;;
29320;SDS011;16323;51.130;6.612;2023-06-14T02:40:03;8.98;;;4.40;;
29320;SDS011;16323;51.130;6.612;2023-06-14T02:42:31;13.43;;;4.75;;
29320;SDS011;16323;51.130;6.612;2023-06-14T02:44:57;8.10;;;4.40;;
29320;SDS011;16323;51.130;6.612;2023-06-14T02:47:26;8.32;;;4.07;;
29320;SDS011;16323;51.130;6.612;2023-06-14T02:49:53;9.80;;;4.00;;
29320;SDS011;16323;51.130;6.612;2023-06-14T02:52:20;9.20;;;3.83;;
29320;SDS011;16323;51.130;6.612;2023-06-14T02:54:47;7.30;;;4.13;;
29320;SDS011;16323;51.130;6.612;2023-06-14T02:57:14;7.53;;;4.00;;
29320;SDS011;16323;51.130;6.612;2023-06-14T02:59:41;8.38;;;4.55;;
29320;SDS011;16323;51.130;6.612;2023-06-14T03:02:07;8.13;;;4.40;;
29320;SDS011;16323;51.130;6.612;2023-06-14T03:04:36;9.07;;;4.25;;
29320;SDS011;16323;51.130;6.612;2023-06-14T03:07:03;9.27;;;3.90;;
29320;SDS011;16323;51.130;6.612;2023-06-14T03:09:34;5.25;;;3.60;;
29320;SDS011;16323;51.130;6.612;2023-06-14T03:12:02;11.60;;;5.32;;
29320;SDS011;16323;51.130;6.612;2023-06-14T03:14:29;9.32;;;4.45;;
29320;SDS011;16323;51.130;6.612;2023-06-14T03:16:56;7.40;;;4.55;;
29320;SDS011;16323;51.130;6.612;2023-06-14T03:19:23;9.85;;;4.80;;
29320;SDS011;16323;51.130;6.612;2023-06-14T03:21:52;11.57;;;3.90;;
29320;SDS011;16323;51.130;6.612;2023-06-14T03:24:22;14.48;;;4.40;;
29320;SDS011;16323;51.130;6.612;2023-06-14T03:26:48;7.18;;;4.05;;
29320;SDS011;16323;51.130;6.612;2023-06-14T03:29:15;7.07;;;4.28;;
29320;SDS011;16323;51.130;6.612;2023-06-14T03:31:56;6.93;;;4.18;;
29320;SDS011;16323;51.130;6.612;2023-06-14T03:34:24;10.55;;;4.40;;
29320;SDS011;16323;51.130;6.612;2023-06-14T03:36:50;13.65;;;4.00;;
29320;SDS011;16323;51.130;6.612;2023-06-14T03:39:19;11.10;;;4.30;;
29320;SDS011;16323;51.130;6.612;2023-06-14T03:41:46;10.45;;;3.92;;
29320;SDS011;16323;51.130;6.612;2023-06-14T03:44:14;11.10;;;4.45;;
29320;SDS011;16323;51.130;6.612;2023-06-14T03:46:41;10.63;;;4.22;;
29320;SDS011;16323;51.130;6.612;2023-06-14T03:49:08;7.60;;;4.32;;
29320;SDS011;16323;51.130;6.612;2023-06-14T03:51:35;11.73;;;4.47;;
29320;SDS011;16323;51.130;6.612;2023-06-14T03:54:04;10.25;;;4.60;;
29320;SDS011;16323;51.130;6.612;2023-06-14T03:56:31;11.85;;;4.68;;
29320;SDS011;16323;51.130;6.612;2023-06-14T03:58:58;8.35;;;4.30;;
29320;SDS011;16323;51.130;6.612;2023-06-14T04:01:24;8.90;;;4.27;;
29320;SDS011;16323;51.130;6.612;2023-06-14T04:03:54;10.13;;;4.03;;
29320;SDS011;16323;51.130;6.612;2023-06-14T04:06:21;9.27;;;4.70;;
29320;SDS011;16323;51.130;6.612;2023-06-14T04:08:49;6.47;;;4.17;;
29320;SDS011;16323;51.130;6.612;2023-06-14T04:11:18;7.82;;;4.50;;
29320;SDS011;16323;51.130;6.612;2023-06-14T04:13:45;7.45;;;4.50;;
29320;SDS011;16323;51.130;6.612;2023-06-14T04:16:12;10.30;;;4.65;;
29320;SDS011;16323;51.130;6.612;2023-06-14T04:18:39;7.82;;;3.97;;
29320;SDS011;16323;51.130;6.612;2023-06-14T04:21:05;8.02;;;3.78;;
29320;SDS011;16323;51.130;6.612;2023-06-14T04:23:33;8.43;;;3.83;;
29320;SDS011;16323;51.130;6.612;2023-06-14T04:26:00;8.88;;;3.45;;
29320;SDS011;16323;51.130;6.612;2023-06-14T04:28:29;5.05;;;3.08;;
29320;SDS011;16323;51.130;6.612;2023-06-14T04:30:55;6.80;;;3.65;;
29320;SDS011;16323;51.130;6.612;2023-06-14T04:33:22;4.25;;;3.13;;
29320;SDS011;16323;51.130;6.612;2023-06-14T04:35:50;10.88;;;4.43;;
29320;SDS011;16323;51.130;6.612;2023-06-14T04:38:18;10.43;;;4.45;;
29320;SDS011;16323;51.130;6.612;2023-06-14T04:40:49;10.80;;;4.57;;
29320;SDS011;16323;51.130;6.612;2023-06-14T04:43:17;9.80;;;4.47;;
29320;SDS011;16323;51.130;6.612;2023-06-14T04:45:53;9.20;;;4.10;;
29320;SDS011;16323;51.130;6.612;2023-06-14T04:48:21;14.75;;;4.53;;
29320;SDS011;16323;51.130;6.612;2023-06-14T04:50:48;15.38;;;4.55;;
29320;SDS011;16323;51.130;6.612;2023-06-14T04:53:17;12.68;;;4.35;;
29320;SDS011;16323;51.130;6.612;2023-06-14T04:55:46;10.68;;;4.65;;
29320;SDS011;16323;51.130;6.612;2023-06-14T04:58:13;7.68;;;3.92;;
29320;SDS011;16323;51.130;6.612;2023-06-14T05:00:40;10.10;;;4.63;;
29320;SDS011;16323;51.130;6.612;2023-06-14T05:03:09;9.32;;;4.45;;
29320;SDS011;16323;51.130;6.612;2023-06-14T05:05:38;11.77;;;4.35;;
29320;SDS011;16323;51.130;6.612;2023-06-14T05:08:05;9.80;;;3.83;;
29320;SDS011;16323;51.130;6.612;2023-06-14T05:10:32;10.82;;;4.40;;
29320;SDS011;16323;51.130;6.612;2023-06-14T05:13:00;18.27;;;4.95;;
29320;SDS011;16323;51.130;6.612;2023-06-14T05:15:26;11.80;;;4.60;;
29320;SDS011;16323;51.130;6.612;2023-06-14T05:17:54;12.63;;;4.70;;
29320;SDS011;16323;51.130;6.612;2023-06-14T05:20:22;14.30;;;4.47;;
29320;SDS011;16323;51.130;6.612;2023-06-14T05:22:51;15.45;;;4.90;;
29320;SDS011;16323;51.130;6.612;2023-06-14T05:25:19;10.52;;;3.55;;
29320;SDS011;16323;51.130;6.612;2023-06-14T05:27:45;10.77;;;4.15;;
29320;SDS011;16323;51.130;6.612;2023-06-14T05:30:13;9.85;;;4.18;;
29320;SDS011;16323;51.130;6.612;2023-06-14T05:32:40;16.58;;;5.05;;
29320;SDS011;16323;51.130;6.612;2023-06-14T05:35:07;10.40;;;4.20;;
29320;SDS011;16323;51.130;6.612;2023-06-14T05:37:36;6.78;;;3.50;;
29320;SDS011;16323;51.130;6.612;2023-06-14T05:40:03;7.78;;;3.60;;
29320;SDS011;16323;51.130;6.612;2023-06-14T05:42:31;9.52;;;3.80;;
29320;SDS011;16323;51.130;6.612;2023-06-14T05:44:58;9.43;;;3.83;;
29320;SDS011;16323;51.130;6.612;2023-06-14T05:47:25;8.98;;;4.13;;
29320;SDS011;16323;51.130;6.612;2023-06-14T05:49:52;6.47;;;3.67;;
29320;SDS011;16323;51.130;6.612;2023-06-14T05:52:20;9.02;;;3.53;;
29320;SDS011;16323;51.130;6.612;2023-06-14T05:54:48;7.80;;;3.75;;
29320;SDS011;16323;51.130;6.612;2023-06-14T05:57:15;8.55;;;3.58;;
29320;SDS011;16323;51.130;6.612;2023-06-14T05:59:42;4.72;;;2.67;;
29320;SDS011;16323;51.130;6.612;2023-06-14T06:02:08;9.63;;;3.22;;
29320;SDS011;16323;51.130;6.612;2023-06-14T06:04:35;3.83;;;2.80;;
29320;SDS011;16323;51.130;6.612;2023-06-14T06:07:02;6.13;;;2.83;;
29320;SDS011;16323;51.130;6.612;2023-06-14T06:09:30;3.97;;;2.53;;
29320;SDS011;16323;51.130;6.612;2023-06-14T06:11:58;6.43;;;2.60;;
29320;SDS011;16323;51.130;6.612;2023-06-14T06:14:25;3.63;;;2.75;;
29320;SDS011;16323;51.130;6.612;2023-06-14T06:16:53;3.00;;;2.30;;
29320;SDS011;16323;51.130;6.612;2023-06-14T06:19:20;3.58;;;2.40;;
29320;SDS011;16323;51.130;6.612;2023-06-14T06:21:46;3.63;;;2.38;;
29320;SDS011;16323;51.130;6.612;2023-06-14T06:24:13;12.88;;;3.78;;
29320;SDS011;16323;51.130;6.612;2023-06-14T06:26:40;12.10;;;2.88;;
29320;SDS011;16323;51.130;6.612;2023-06-14T06:29:08;7.32;;;3.40;;
29320;SDS011;16323;51.130;6.612;2023-06-14T06:31:35;8.13;;;3.17;;
29320;SDS011;16323;51.130;6.612;2023-06-14T06:34:02;3.17;;;2.20;;
29320;SDS011;16323;51.130;6.612;2023-06-14T06:36:28;5.30;;;2.92;;
29320;SDS011;16323;51.130;6.612;2023-06-14T06:38:55;12.13;;;2.88;;
29320;SDS011;16323;51.130;6.612;2023-06-14T06:41:22;4.18;;;2.78;;
29320;SDS011;16323;51.130;6.612;2023-06-14T06:43:49;13.25;;;3.30;;
29320;SDS011;16323;51.130;6.612;2023-06-14T06:46:17;6.18;;;2.67;;
29320;SDS011;16323;51.130;6.612;2023-06-14T06:48:44;6.68;;;2.65;;
29320;SDS011;16323;51.130;6.612;2023-06-14T06:51:11;4.22;;;2.22;;
29320;SDS011;16323;51.130;6.612;2023-06-14T06:53:38;3.67;;;2.45;;
29320;SDS011;16323;51.130;6.612;2023-06-14T06:56:05;3.83;;;2.35;;
29320;SDS011;16323;51.130;6.612;2023-06-14T06:58:32;6.03;;;2.25;;
29320;SDS011;16323;51.130;6.612;2023-06-14T07:00:59;3.80;;;2.30;;
29320;SDS011;16323;51.130;6.612;2023-06-14T07:03:27;4.57;;;2.17;;
29320;SDS011;16323;51.130;6.612;2023-06-14T07:05:54;7.32;;;2.35;;
29320;SDS011;16323;51.130;6.612;2023-06-14T07:08:21;4.50;;;2.40;;
29320;SDS011;16323;51.130;6.612;2023-06-14T07:10:47;4.50;;;2.58;;
29320;SDS011;16323;51.130;6.612;2023-06-14T07:13:14;6.72;;;2.58;;
29320;SDS011;16323;51.130;6.612;2023-06-14T07:15:41;7.07;;;2.50;;
29320;SDS011;16323;51.130;6.612;2023-06-14T07:18:08;6.25;;;1.92;;
29320;SDS011;16323;51.130;6.612;2023-06-14T07:20:36;6.25;;;2.33;;
29320;SDS011;16323;51.130;6.612;2023-06-14T07:23:03;4.03;;;2.20;;
29320;SDS011;16323;51.130;6.612;2023-06-14T07:25:30;4.90;;;2.58;;
29320;SDS011;16323;51.130;6.612;2023-06-14T07:27:57;2.72;;;2.05;;
29320;SDS011;16323;51.130;6.612;2023-06-14T07:30:24;3.85;;;2.15;;
29320;SDS011;16323;51.130;6.612;2023-06-14T07:32:52;4.00;;;2.40;;
29320;SDS011;16323;51.130;6.612;2023-06-14T07:35:19;3.38;;;2.00;;
29320;SDS011;16323;51.130;6.612;2023-06-14T07:37:47;2.58;;;2.15;;
29320;SDS011;16323;51.130;6.612;2023-06-14T07:40:14;4.60;;;2.10;;
29320;SDS011;16323;51.130;6.612;2023-06-14T07:42:41;7.80;;;2.30;;
29320;SDS011;16323;51.130;6.612;2023-06-14T07:45:08;2.60;;;1.80;;
29320;SDS011;16323;51.130;6.612;2023-06-14T07:47:36;2.40;;;1.90;;
29320;SDS011;16323;51.130;6.612;2023-06-14T07:50:03;2.95;;;1.88;;
29320;SDS011;16323;51.130;6.612;2023-06-14T07:52:30;3.85;;;1.90;;
29320;SDS011;16323;51.130;6.612;2023-06-14T07:54:58;4.22;;;1.90;;
29320;SDS011;16323;51.130;6.612;2023-06-14T07:57:25;2.20;;;1.70;;
29320;SDS011;16323;51.130;6.612;2023-06-14T07:59:52;5.35;;;1.42;;
29320;SDS011;16323;51.130;6.612;2023-06-14T08:02:18;2.58;;;1.48;;
29320;SDS011;16323;51.130;6.612;2023-06-14T08:04:45;1.98;;;1.52;;
29320;SDS011;16323;51.130;6.612;2023-06-14T08:07:13;3.05;;;1.50;;
29320;SDS011;16323;51.130;6.612;2023-06-14T08:09:40;3.53;;;1.30;;
29320;SDS011;16323;51.130;6.612;2023-06-14T08:12:08;13.85;;;2.10;;
29320;SDS011;16323;51.130;6.612;2023-06-14T08:14:35;3.70;;;1.67;;
29320;SDS011;16323;51.130;6.612;2023-06-14T08:17:02;5.07;;;1.50;;
29320;SDS011;16323;51.130;6.612;2023-06-14T08:19:29;11.10;;;1.90;;
29320;SDS011;16323;51.130;6.612;2023-06-14T08:21:56;5.45;;;1.20;;
29320;SDS011;16323;51.130;6.612;2023-06-14T08:24:23;4.20;;;1.20;;
29320;SDS011;16323;51.130;6.612;2023-06-14T08:26:52;4.55;;;1.10;;
29320;SDS011;16323;51.130;6.612;2023-06-14T08:29:20;2.03;;;1.40;;
29320;SDS011;16323;51.130;6.612;2023-06-14T08:31:47;3.25;;;1.38;;
29320;SDS011;16323;51.130;6.612;2023-06-14T08:34:13;2.05;;;1.38;;
29320;SDS011;16323;51.130;6.612;2023-06-14T08:36:40;2.10;;;1.10;;
29320;SDS011;16323;51.130;6.612;2023-06-14T08:39:07;2.13;;;1.42;;
29320;SDS011;16323;51.130;6.612;2023-06-14T08:41:34;0.95;;;0.85;;
29320;SDS011;16323;51.130;6.612;2023-06-14T08:44:02;1.33;;;1.02;;
29320;SDS011;16323;51.130;6.612;2023-06-14T08:46:30;1.90;;;1.23;;
29320;SDS011;16323;51.130;6.612;2023-06-14T08:48:59;3.78;;;1.58;;
29320;SDS011;16323;51.130;6.612;2023-06-14T08:51:28;1.88;;;1.10;;
29320;SDS011;16323;51.130;6.612;2023-06-14T08:53:59;4.90;;;1.15;;
29320;SDS011;16323;51.130;6.612;2023-06-14T08:56:27;2.13;;;1.08;;
29320;SDS011;16323;51.130;6.612;2023-06-14T08:58:55;2.92;;;1.13;;
29320;SDS011;16323;51.130;6.612;2023-06-14T09:01:26;1.73;;;1.20;;
29320;SDS011;16323;51.130;6.612;2023-06-14T09:03:54;2.42;;;1.08;;
29320;SDS011;16323;51.130;6.612;2023-06-14T09:06:22;2.03;;;1.17;;
29320;SDS011;16323;51.130;6.612;2023-06-14T09:08:50;5.93;;;1.08;;
29320;SDS011;16323;51.130;6.612;2023-06-14T09:11:17;1.42;;;1.10;;
29320;SDS011;16323;51.130;6.612;2023-06-14T09:13:45;1.60;;;1.10;;
29320;SDS011;16323;51.130;6.612;2023-06-14T09:16:12;5.07;;;1.17;;
29320;SDS011;16323;51.130;6.612;2023-06-14T09:18:41;5.45;;;1.25;;
29320;SDS011;16323;51.130;6.612;2023-06-14T09:21:11;3.58;;;1.08;;
29320;SDS011;16323;51.130;6.612;2023-06-14T09:23:38;2.20;;;1.00;;
29320;SDS011;16323;51.130;6.612;2023-06-14T09:26:07;1.40;;;1.00;;
29320;SDS011;16323;51.130;6.612;2023-06-14T09:28:34;4.20;;;1.25;;
29320;SDS011;16323;51.130;6.612;2023-06-14T09:31:01;2.83;;;1.40;;
29320;SDS011;16323;51.130;6.612;2023-06-14T09:33:28;4.53;;;1.10;;
29320;SDS011;16323;51.130;6.612;2023-06-14T09:35:57;2.30;;;1.35;;
29320;SDS011;16323;51.130;6.612;2023-06-14T09:38:25;7.63;;;1.05;;
29320;SDS011;16323;51.130;6.612;2023-06-14T09:40:52;1.58;;;1.17;;
29320;SDS011;16323;51.130;6.612;2023-06-14T09:43:21;2.17;;;1.27;;
29320;SDS011;16323;51.130;6.612;2023-06-14T09:45:51;1.63;;;1.00;;
29320;SDS011;16323;51.130;6.612;2023-06-14T09:48:18;2.42;;;1.13;;
29320;SDS011;16323;51.130;6.612;2023-06-14T09:50:45;3.42;;;1.30;;
29320;SDS011;16323;51.130;6.612;2023-06-14T09:53:13;1.02;;;0.82;;
29320;SDS011;16323;51.130;6.612;2023-06-14T09:55:43;6.43;;;1.20;;
29320;SDS011;16323;51.130;6.612;2023-06-14T09:58:11;0.85;;;0.80;;
29320;SDS011;16323;51.130;6.612;2023-06-14T10:00:40;2.30;;;1.00;;
29320;SDS011;16323;51.130;6.612;2023-06-14T10:03:11;4.38;;;1.30;;
29320;SDS011;16323;51.130;6.612;2023-06-14T10:05:39;6.18;;;1.00;;
29320;SDS011;16323;51.130;6.612;2023-06-14T10:08:10;2.15;;;1.23;;
29320;SDS011;16323;51.130;6.612;2023-06-14T10:10:42;1.70;;;0.95;;
29320;SDS011;16323;51.130;6.612;2023-06-14T10:13:09;2.20;;;1.20;;
29320;SDS011;16323;51.130;6.612;2023-06-14T10:15:38;1.83;;;1.08;;
29320;SDS011;16323;51.130;6.612;2023-06-14T10:18:16;2.10;;;1.15;;
29320;SDS011;16323;51.130;6.612;2023-06-14T10:20:51;2.63;;;1.40;;
29320;SDS011;16323;51.130;6.612;2023-06-14T10:23:24;6.13;;;1.20;;
29320;SDS011;16323;51.130;6.612;2023-06-14T10:25:57;1.90;;;1.02;;
29320;SDS011;16323;51.130;6.612;2023-06-14T10:28:25;2.90;;;1.30;;
29320;SDS011;16323;51.130;6.612;2023-06-14T10:31:01;3.22;;;1.30;;
29320;SDS011;16323;51.130;6.612;2023-06-14T10:33:32;2.53;;;1.20;;
29320;SDS011;16323;51.130;6.612;2023-06-14T10:38:59;1.90;;;1.13;;
29320;SDS011;16323;51.130;6.612;2023-06-14T10:41:29;6.10;;;1.10;;
29320;SDS011;16323;51.130;6.612;2023-06-14T10:46:59;2.90;;;1.10;;
29320;SDS011;16323;51.130;6.612;2023-06-14T10:49:36;3.22;;;1.27;;
29320;SDS011;16323;51.130;6.612;2023-06-14T10:52:08;3.38;;;1.65;;
29320;SDS011;16323;51.130;6.612;2023-06-14T10:54:55;3.45;;;1.30;;
29320;SDS011;16323;51.130;6.612;2023-06-14T10:57:27;2.45;;;1.05;;
29320;SDS011;16323;51.130;6.612;2023-06-14T10:59:55;1.70;;;0.95;;
29320;SDS011;16323;51.130;6.612;2023-06-14T11:05:41;2.33;;;1.30;;
29320;SDS011;16323;51.130;6.612;2023-06-14T11:08:18;8.15;;;1.50;;
29320;SDS011;16323;51.130;6.612;2023-06-14T11:10:54;2.08;;;1.35;;
29320;SDS011;16323;51.130;6.612;2023-06-14T11:13:25;2.42;;;1.30;;
29320;SDS011;16323;51.130;6.612;2023-06-14T11:15:53;1.67;;;0.95;;
29320;SDS011;16323;51.130;6.612;2023-06-14T11:18:22;2.50;;;1.05;;
29320;SDS011;16323;51.130;6.612;2023-06-14T11:20:52;1.77;;;1.10;;
29320;SDS011;16323;51.130;6.612;2023-06-14T11:23:19;1.45;;;1.00;;
29320;SDS011;16323;51.130;6.612;2023-06-14T11:25:49;5.00;;;1.33;;
29320;SDS011;16323;51.130;6.612;2023-06-14T11:28:17;8.77;;;1.10;;
29320;SDS011;16323;51.130;6.612;2023-06-14T11:30:46;2.08;;;1.02;;
29320;SDS011;16323;51.130;6.612;2023-06-14T11:33:16;3.53;;;1.35;;
29320;SDS011;16323;51.130;6.612;2023-06-14T11:35:43;1.73;;;1.10;;
29320;SDS011;16323;51.130;6.612;2023-06-14T11:38:10;1.95;;;0.93;;
29320;SDS011;16323;51.130;6.612;2023-06-14T11:40:38;4.22;;;1.08;;
29320;SDS011;16323;51.130;6.612;2023-06-14T11:43:05;2.10;;;1.20;;
29320;SDS011;16323;51.130;6.612;2023-06-14T11:45:32;2.63;;;1.17;;
29320;SDS011;16323;51.130;6.612;2023-06-14T11:48:00;2.28;;;1.40;;
29320;SDS011;16323;51.130;6.612;2023-06-14T11:50:27;4.32;;;1.20;;
29320;SDS011;16323;51.130;6.612;2023-06-14T11:52:54;1.60;;;1.08;;
29320;SDS011;16323;51.130;6.612;2023-06-14T11:55:21;5.03;;;1.27;;
29320;SDS011;16323;51.130;6.612;2023-06-14T11:57:49;5.22;;;1.30;;
29320;SDS011;16323;51.130;6.612;2023-06-14T12:00:16;1.25;;;1.13;;
29320;SDS011;16323;51.130;6.612;2023-06-14T12:02:52;3.50;;;1.38;;
29320;SDS011;16323;51.130;6.612;2023-06-14T12:05:22;3.00;;;1.27;;
29320;SDS011;16323;51.130;6.612;2023-06-14T12:07:49;2.88;;;1.20;;
29320;SDS011;16323;51.130;6.612;2023-06-14T12:10:18;4.10;;;1.35;;
29320;SDS011;16323;51.130;6.612;2023-06-14T12:12:45;5.47;;;1.27;;
29320;SDS011;16323;51.130;6.612;2023-06-14T12:15:12;2.20;;;1.30;;
29320;SDS011;16323;51.130;6.612;2023-06-14T12:17:39;1.58;;;1.20;;
29320;SDS011;16323;51.130;6.612;2023-06-14T12:20:09;2.63;;;1.60;;
29320;SDS011;16323;51.130;6.612;2023-06-14T12:22:40;2.80;;;1.13;;
29320;SDS011;16323;51.130;6.612;2023-06-14T12:25:23;3.00;;;1.40;;
29320;SDS011;16323;51.130;6.612;2023-06-14T12:27:53;3.10;;;1.45;;
29320;SDS011;16323;51.130;6.612;2023-06-14T12:30:20;4.90;;;0.80;;
29320;SDS011;16323;51.130;6.612;2023-06-14T12:32:46;5.05;;;1.13;;
29320;SDS011;16323;51.130;6.612;2023-06-14T12:35:16;1.15;;;0.90;;
29320;SDS011;16323;51.130;6.612;2023-06-14T12:37:44;2.42;;;1.42;;
29320;SDS011;16323;51.130;6.612;2023-06-14T12:40:11;1.30;;;0.93;;
29320;SDS011;16323;51.130;6.612;2023-06-14T12:42:38;5.63;;;1.35;;
29320;SDS011;16323;51.130;6.612;2023-06-14T12:45:06;3.42;;;1.10;;
29320;SDS011;16323;51.130;6.612;2023-06-14T12:47:33;4.32;;;1.20;;
29320;SDS011;16323;51.130;6.612;2023-06-14T12:50:00;1.88;;;1.15;;
29320;SDS011;16323;51.130;6.612;2023-06-14T12:52:27;1.50;;;1.10;;
29320;SDS011;16323;51.130;6.612;2023-06-14T12:54:56;1.35;;;1.00;;
29320;SDS011;16323;51.130;6.612;2023-06-14T12:57:23;5.25;;;1.10;;
29320;SDS011;16323;51.130;6.612;2023-06-14T12:59:50;1.50;;;1.02;;
29320;SDS011;16323;51.130;6.612;2023-06-14T13:02:17;1.77;;;1.00;;
29320;SDS011;16323;51.130;6.612;2023-06-14T13:04:47;5.70;;;1.00;;
29320;SDS011;16323;51.130;6.612;2023-06-14T13:07:14;1.52;;;0.98;;
29320;SDS011;16323;51.130;6.612;2023-06-14T13:09:41;1.48;;;0.98;;
29320;SDS011;16323;51.130;6.612;2023-06-14T13:12:10;1.75;;;1.10;;
29320;SDS011;16323;51.130;6.612;2023-06-14T13:14:37;1.42;;;0.98;;
29320;SDS011;16323;51.130;6.612;2023-06-14T13:17:05;6.20;;;1.13;;
29320;SDS011;16323;51.130;6.612;2023-06-14T13:19:32;5.60;;;0.85;;
29320;SDS011;16323;51.130;6.612;2023-06-14T13:21:59;4.70;;;1.38;;
29320;SDS011;16323;51.130;6.612;2023-06-14T13:24:25;1.08;;;0.90;;
29320;SDS011;16323;51.130;6.612;2023-06-14T13:26:53;4.47;;;1.00;;
29320;SDS011;16323;51.130;6.612;2023-06-14T13:29:22;9.25;;;1.15;;
29320;SDS011;16323;51.130;6.612;2023-06-14T13:31:49;1.58;;;1.00;;
29320;SDS011;16323;51.130;6.612;2023-06-14T13:34:16;3.15;;;0.80;;
29320;SDS011;16323;51.130;6.612;2023-06-14T13:36:43;1.30;;;0.88;;
29320;SDS011;16323;51.130;6.612;2023-06-14T13:39:10;1.50;;;0.98;;
29320;SDS011;16323;51.130;6.612;2023-06-14T13:41:37;1.35;;;0.90;;
29320;SDS011;16323;51.130;6.612;2023-06-14T13:44:04;1.00;;;0.77;;
29320;SDS011;16323;51.130;6.612;2023-06-14T13:46:32;1.38;;;1.10;;
29320;SDS011;16323;51.130;6.612;2023-06-14T13:48:59;2.10;;;0.70;;
29320;SDS011;16323;51.130;6.612;2023-06-14T13:51:27;3.15;;;0.88;;
29320;SDS011;16323;51.130;6.612;2023-06-14T13:53:54;1.17;;;0.95;;
29320;SDS011;16323;51.130;6.612;2023-06-14T13:56:20;3.05;;;0.90;;
29320;SDS011;16323;51.130;6.612;2023-06-14T13:58:49;1.85;;;0.70;;
29320;SDS011;16323;51.130;6.612;2023-06-14T14:01:16;2.10;;;1.08;;
29320;SDS011;16323;51.130;6.612;2023-06-14T14:03:45;3.00;;;0.90;;
29320;SDS011;16323;51.130;6.612;2023-06-14T14:06:12;0.90;;;0.73;;
29320;SDS011;16323;51.130;6.612;2023-06-14T14:08:39;1.00;;;0.80;;
29320;SDS011;16323;51.130;6.612;2023-06-14T14:11:06;1.35;;;1.10;;
29320;SDS011;16323;51.130;6.612;2023-06-14T14:13:33;3.13;;;1.00;;
29320;SDS011;16323;51.130;6.612;2023-06-14T14:16:01;2.50;;;0.95;;
29320;SDS011;16323;51.130;6.612;2023-06-14T14:18:28;2.05;;;1.10;;
29320;SDS011;16323;51.130;6.612;2023-06-14T14:20:57;1.77;;;1.00;;
29320;SDS011;16323;51.130;6.612;2023-06-14T14:23:23;2.03;;;1.10;;
29320;SDS011;16323;51.130;6.612;2023-06-14T14:25:50;5.28;;;1.45;;
29320;SDS011;16323;51.130;6.612;2023-06-14T14:28:17;4.95;;;1.35;;
29320;SDS011;16323;51.130;6.612;2023-06-14T14:30:45;1.88;;;1.15;;
29320;SDS011;16323;51.130;6.612;2023-06-14T14:33:12;3.05;;;1.30;;
29320;SDS011;16323;51.130;6.612;2023-06-14T14:35:40;2.95;;;1.42;;
29320;SDS011;16323;51.130;6.612;2023-06-14T14:38:09;2.17;;;1.27;;
29320;SDS011;16323;51.130;6.612;2023-06-14T14:40:36;2.65;;;0.77;;
29320;SDS011;16323;51.130;6.612;2023-06-14T14:43:03;2.58;;;1.20;;
29320;SDS011;16323;51.130;6.612;2023-06-14T14:45:30;2.45;;;0.80;;
29320;SDS011;16323;51.130;6.612;2023-06-14T14:47:57;1.60;;;0.98;;
29320;SDS011;16323;51.130;6.612;2023-06-14T14:50:24;1.48;;;1.02;;
29320;SDS011;16323;51.130;6.612;2023-06-14T14:52:52;0.80;;;0.80;;
29320;SDS011;16323;51.130;6.612;2023-06-14T14:55:20;0.98;;;0.75;;
29320;SDS011;16323;51.130;6.612;2023-06-14T14:57:46;1.35;;;0.90;;
29320;SDS011;16323;51.130;6.612;2023-06-14T15:00:13;1.35;;;0.98;;